createdAt,value
2022-09-23T00:01:21.339Z,101478.28
2022-09-23T00:03:53.881Z,101482.59
2022-09-23T00:06:29.805Z,101485.75
2022-09-23T00:09:02.084Z,101481.84
2022-09-23T00:11:34.397Z,101482.59
2022-09-23T00:14:06.709Z,101487.69
2022-09-23T00:16:40.147Z,101481.78
2022-09-23T00:19:12.555Z,101481.41
2022-09-23T00:21:44.887Z,101469.97
2022-09-23T00:24:17.223Z,101469.97
2022-09-23T00:26:49.527Z,101470.75
2022-09-23T00:29:23.556Z,101465.28
2022-09-23T00:31:55.896Z,101469.59
2022-09-23T00:34:28.173Z,101464.50
2022-09-23T00:37:00.486Z,101462.94
2022-09-23T00:39:32.780Z,101460.56
2022-09-23T00:42:05.304Z,101454.28
2022-09-23T00:44:40.644Z,101462.13
2022-09-23T00:47:22.140Z,101455.44
2022-09-23T00:50:09.805Z,101456.97
2022-09-23T00:52:42.216Z,101454.63
2022-09-23T00:55:19.471Z,101457.38
2022-09-23T00:57:54.553Z,101452.28
2022-09-23T01:00:27.030Z,101443.66
2022-09-23T01:03:00.437Z,101440.91
2022-09-23T01:05:36.562Z,101450.38
2022-09-23T01:08:10.080Z,101442.50
2022-09-23T01:10:54.516Z,101444.06
2022-09-23T01:13:32.172Z,101442.47
2022-09-23T01:16:13.558Z,101441.69
2022-09-23T01:18:54.200Z,101446.72
2022-09-23T01:21:26.531Z,101438.09
2022-09-23T01:24:12.497Z,101438.47
2022-09-23T01:27:04.344Z,101440.03
2022-09-23T01:29:45.575Z,101434.47
2022-09-23T01:32:17.830Z,101432.13
2022-09-23T01:34:56.846Z,101437.19
2022-09-23T01:37:37.603Z,101437.97
2022-09-23T01:40:14.615Z,101433.25
2022-09-23T01:42:51.090Z,101434.41
2022-09-23T01:45:29.061Z,101423.47
2022-09-23T01:48:04.988Z,101425.06
2022-09-23T01:50:57.594Z,101432.13
2022-09-23T01:53:35.567Z,101427.41
2022-09-23T01:56:15.121Z,101421.09
2022-09-23T01:58:54.961Z,101432.50
2022-09-23T02:01:33.001Z,101428.19
2022-09-23T02:04:09.683Z,101421.91
2022-09-23T02:06:45.329Z,101430.94
2022-09-23T02:09:24.842Z,101419.56
2022-09-23T02:12:02.117Z,101421.91
2022-09-23T02:14:50.465Z,101418.81
2022-09-23T02:17:31.024Z,101425.06
2022-09-23T02:20:06.032Z,101419.97
2022-09-23T02:22:48.409Z,101420.75
2022-09-23T02:25:23.260Z,101420.41
2022-09-23T02:27:59.983Z,101415.72
2022-09-23T02:30:39.707Z,101412.22
2022-09-23T02:33:18.473Z,101410.28
2022-09-23T02:36:08.876Z,101407.56
2022-09-23T02:38:45.130Z,101398.16
2022-09-23T02:41:22.915Z,101398.97
2022-09-23T02:44:01.215Z,101394.66
2022-09-23T02:46:33.861Z,101389.53
2022-09-23T02:49:13.601Z,101382.09
2022-09-23T02:51:46.534Z,101377.75
2022-09-23T02:54:20.880Z,101383.66
2022-09-23T02:56:53.652Z,101378.94
2022-09-23T02:59:25.964Z,101378.56
2022-09-23T03:01:58.390Z,101378.16
2022-09-23T03:04:50.339Z,101374.19
2022-09-23T03:07:25.601Z,101368.69
2022-09-23T03:10:03.904Z,101371.81
2022-09-23T03:12:52.946Z,101369.44
2022-09-23T03:15:37.476Z,101370.63
2022-09-23T03:18:13.059Z,101366.31
2022-09-23T03:20:50.400Z,101371.81
2022-09-23T03:23:25.890Z,101368.69
2022-09-23T03:25:59.897Z,101362.38
2022-09-23T03:28:35.398Z,101358.44
2022-09-23T03:31:08.280Z,101359.63
2022-09-23T03:33:43.344Z,101359.63
2022-09-23T03:36:37.368Z,101360.00
2022-09-23T03:39:12.653Z,101352.13
2022-09-23T03:41:50.808Z,101352.91
2022-09-23T03:44:23.412Z,101346.25
2022-09-23T03:46:59.340Z,101345.03
2022-09-23T03:49:34.907Z,101348.59
2022-09-23T03:52:07.230Z,101347.78
2022-09-23T03:54:40.807Z,101345.84
2022-09-23T03:57:15.772Z,101339.56
2022-09-23T03:59:49.333Z,101344.22
2022-09-23T04:02:21.751Z,101347.34
2022-09-23T04:04:54.720Z,101343.47
2022-09-23T04:07:27.096Z,101340.31
2022-09-23T04:09:59.383Z,101339.53
2022-09-23T04:12:31.654Z,101342.28
2022-09-23T04:15:04.372Z,101342.28
2022-09-23T04:17:36.688Z,101341.91
2022-09-23T04:20:09.200Z,101339.56
2022-09-23T04:22:41.470Z,101336.47
2022-09-23T04:25:13.806Z,101341.16
2022-09-23T04:27:46.077Z,101344.31
2022-09-23T04:30:18.652Z,101334.94
2022-09-23T04:32:52.146Z,101346.66
2022-09-23T04:35:24.550Z,101343.53
2022-09-23T04:37:57.908Z,101332.56
2022-09-23T04:40:30.324Z,101334.13
2022-09-23T04:43:02.688Z,101329.84
2022-09-23T04:45:35.166Z,101331.00
2022-09-23T04:48:09.526Z,101326.31
2022-09-23T04:50:42.091Z,101325.53
2022-09-23T04:53:16.422Z,101327.09
2022-09-23T04:55:48.783Z,101327.09
2022-09-23T04:58:22.953Z,101321.63
2022-09-23T05:00:55.298Z,101328.66
2022-09-23T05:03:27.605Z,101323.19
2022-09-23T05:05:59.928Z,101328.66
2022-09-23T05:08:35.603Z,101318.47
2022-09-23T05:11:08.956Z,101320.03
2022-09-23T05:13:41.332Z,101322.38
2022-09-23T05:16:14.204Z,101319.22
2022-09-23T05:18:48.130Z,101326.31
2022-09-23T05:21:21.912Z,101324.75
2022-09-23T05:23:55.457Z,101324.78
2022-09-23T05:26:29.456Z,101331.81
2022-09-23T05:29:01.763Z,101327.91
2022-09-23T05:31:34.767Z,101332.63
2022-09-23T05:34:07.299Z,101334.56
2022-09-23T05:36:39.594Z,101327.94
2022-09-23T05:39:11.882Z,101339.69
2022-09-23T05:41:44.454Z,101340.13
2022-09-23T05:44:16.988Z,101349.16
2022-09-23T05:46:49.381Z,101358.59
2022-09-23T05:49:33.028Z,101349.16
2022-09-23T05:52:14.079Z,101359.41
2022-09-23T05:54:46.399Z,101349.22
2022-09-23T05:57:19.766Z,101350.00
2022-09-23T05:59:52.096Z,101357.09
2022-09-23T06:02:24.430Z,101348.06
2022-09-23T06:04:56.759Z,101350.00
2022-09-23T06:07:29.874Z,101351.59
2022-09-23T06:10:02.199Z,101354.72
2022-09-23T06:12:35.767Z,101349.22
2022-09-23T06:15:08.237Z,101349.19
2022-09-23T06:17:40.639Z,101350.34
2022-09-23T06:20:12.962Z,101350.00
2022-09-23T06:22:45.523Z,101342.88
2022-09-23T06:25:19.522Z,101342.06
2022-09-23T06:27:55.463Z,101351.44
2022-09-23T06:30:28.517Z,101350.28
2022-09-23T06:33:01.864Z,101351.41
2022-09-23T06:35:34.201Z,101350.22
2022-09-23T06:38:06.519Z,101349.00
2022-09-23T06:40:38.959Z,101347.75
2022-09-23T06:43:11.302Z,101352.03
2022-09-23T06:45:43.774Z,101350.38
2022-09-23T06:48:16.092Z,101357.81
2022-09-23T06:50:49.290Z,101355.00
2022-09-23T06:53:24.542Z,101354.56
2022-09-23T06:56:02.384Z,101354.88
2022-09-23T06:58:35.819Z,101342.59
2022-09-23T07:01:09.444Z,101350.78
2022-09-23T07:03:42.186Z,101352.69
2022-09-23T07:06:14.790Z,101353.84
2022-09-23T07:08:48.146Z,101351.31
2022-09-23T07:11:22.672Z,101368.53
2022-09-23T07:13:54.970Z,101365.94
2022-09-23T07:16:27.320Z,101358.66
2022-09-23T07:18:59.711Z,101365.59
2022-09-23T07:21:32.110Z,101366.31
2022-09-23T07:24:05.006Z,101364.56
2022-09-23T07:26:38.609Z,101358.03
2022-09-23T07:29:13.336Z,101359.75
2022-09-23T07:31:45.759Z,101358.59
2022-09-23T07:34:20.958Z,101362.47
2022-09-23T07:36:53.771Z,101362.25
2022-09-23T07:39:26.224Z,101360.97
2022-09-23T07:41:59.804Z,101367.19
2022-09-23T07:44:32.485Z,101356.13
2022-09-23T07:47:05.068Z,101352.25
2022-09-23T07:49:38.057Z,101363.25
2022-09-23T07:52:10.444Z,101359.13
2022-09-23T07:54:42.777Z,101369.00
2022-09-23T07:57:15.104Z,101367.13
2022-09-23T07:59:47.446Z,101369.69
2022-09-23T08:02:20.016Z,101372.06
2022-09-23T08:04:53.250Z,101374.06
2022-09-23T08:07:25.554Z,101382.72
2022-09-23T08:09:57.838Z,101377.59
2022-09-23T08:12:30.175Z,101381.63
2022-09-23T08:15:03.020Z,101377.09
2022-09-23T08:17:35.300Z,101370.81
2022-09-23T08:20:07.938Z,101373.97
2022-09-23T08:22:40.244Z,101377.47
2022-09-23T08:25:12.565Z,101374.38
2022-09-23T08:27:45.740Z,101387.84
2022-09-23T08:30:18.089Z,101388.31
2022-09-23T08:32:51.301Z,101378.63
2022-09-23T08:35:23.634Z,101384.75
2022-09-23T08:37:55.950Z,101386.97
2022-09-23T08:40:28.588Z,101387.06
2022-09-23T08:43:01.266Z,101387.28
2022-09-23T08:45:34.534Z,101379.78
2022-09-23T08:48:17.446Z,101387.72
2022-09-23T08:50:52.006Z,101391.84
2022-09-23T08:53:26.255Z,101394.41
2022-09-23T08:55:59.673Z,101397.63
2022-09-23T08:58:45.908Z,101394.34
2022-09-23T09:01:34.405Z,101401.63
2022-09-23T09:04:22.930Z,101396.69
2022-09-23T09:07:24.463Z,101397.44
2022-09-23T09:10:06.599Z,101397.75
2022-09-23T09:12:40.842Z,101390.56
2022-09-23T09:15:15.234Z,101395.75
2022-09-23T09:17:53.720Z,101388.97
2022-09-23T09:20:49.891Z,101397.06
2022-09-23T09:23:23.599Z,101391.63
2022-09-23T09:25:59.367Z,101393.19
2022-09-23T09:28:40.932Z,101383.97
2022-09-23T09:31:32.272Z,101388.66
2022-09-23T09:34:06.233Z,101384.22
2022-09-23T09:36:44.759Z,101384.28
2022-09-23T09:39:17.273Z,101384.63
2022-09-23T09:41:50.573Z,101382.38
2022-09-23T09:44:26.738Z,101383.56
2022-09-23T09:47:08.697Z,101377.16
2022-09-23T09:49:40.966Z,101368.38
2022-09-23T09:52:22.566Z,101371.53
2022-09-23T09:54:56.371Z,101370.97
2022-09-23T09:57:33.612Z,101370.75
2022-09-23T10:00:26.697Z,101372.88
2022-09-23T10:03:05.005Z,101376.31
2022-09-23T10:05:46.569Z,101364.44
2022-09-23T10:08:24.494Z,101368.59
2022-09-23T10:11:16.249Z,101380.22
2022-09-23T10:13:57.706Z,101385.63
2022-09-23T10:16:31.809Z,101366.19
2022-09-23T10:19:12.336Z,101371.16
2022-09-23T10:21:51.057Z,101364.44
2022-09-23T10:24:25.859Z,101356.06
2022-09-23T10:27:09.160Z,101359.44
2022-09-23T10:29:47.652Z,101361.09
2022-09-23T10:32:36.425Z,101349.00
2022-09-23T10:35:14.678Z,101349.81
2022-09-23T10:37:51.602Z,101353.94
2022-09-23T10:40:48.377Z,101353.34
2022-09-23T10:44:06.018Z,101356.03
2022-09-23T10:46:47.477Z,101358.00
2022-09-23T10:49:28.670Z,101354.63
2022-09-23T10:52:14.634Z,101353.69
2022-09-23T10:55:05.769Z,101347.56
2022-09-23T10:57:57.646Z,101351.25
2022-09-23T11:00:41.806Z,101342.16
2022-09-23T11:03:14.154Z,101349.03
2022-09-23T11:05:55.704Z,101343.13
2022-09-23T11:08:40.261Z,101344.00
2022-09-23T11:11:16.657Z,101345.06
2022-09-23T11:14:05.274Z,101349.50
2022-09-23T11:16:41.033Z,101337.50
2022-09-23T11:19:14.333Z,101337.69
2022-09-23T11:22:00.357Z,101340.25
2022-09-23T11:24:51.936Z,101331.72
2022-09-23T11:27:43.076Z,101322.16
2022-09-23T11:30:17.972Z,101324.78
2022-09-23T11:35:47.585Z,101322.88
2022-09-23T11:38:25.812Z,101321.03
2022-09-23T11:41:01.647Z,101327.78
2022-09-23T11:43:39.863Z,101319.91
2022-09-23T11:46:18.362Z,101316.19
2022-09-23T11:48:55.792Z,101312.63
2022-09-23T11:51:34.911Z,101308.06
2022-09-23T11:54:10.004Z,101306.78
2022-09-23T11:56:48.162Z,101308.84
2022-09-23T11:59:39.722Z,101297.91
2022-09-23T12:02:29.601Z,101316.16
2022-09-23T12:05:03.159Z,101309.16
2022-09-23T12:07:48.130Z,101309.56
2022-09-23T12:10:21.149Z,101309.34
2022-09-23T12:13:12.198Z,101310.63
2022-09-23T12:16:03.248Z,101302.09
2022-09-23T12:18:59.289Z,101301.66
2022-09-23T12:21:55.860Z,101295.84
2022-09-23T12:24:45.812Z,101291.69
2022-09-23T12:27:23.889Z,101287.50
2022-09-23T12:30:02.049Z,101293.97
2022-09-23T12:32:34.373Z,101286.03
2022-09-23T12:35:07.755Z,101286.09
2022-09-23T12:37:40.001Z,101280.69
2022-09-23T12:40:21.780Z,101275.88
2022-09-23T12:42:54.491Z,101277.38
2022-09-23T12:45:27.933Z,101273.81
2022-09-23T12:48:00.183Z,101275.88
2022-09-23T12:50:48.141Z,101272.69
2022-09-23T12:53:35.514Z,101280.72
2022-09-23T12:56:15.048Z,101262.00
2022-09-23T12:58:47.318Z,101260.97
2022-09-23T13:01:23.763Z,101262.03
2022-09-23T13:04:16.403Z,101265.19
2022-09-23T13:07:03.711Z,101267.59
2022-09-23T13:09:43.206Z,101263.06
2022-09-23T13:12:18.340Z,101266.47
2022-09-23T13:14:53.156Z,101261.56
2022-09-23T13:17:51.880Z,101259.06
2022-09-23T13:20:36.650Z,101258.69
2022-09-23T13:23:28.496Z,101262.16
2022-09-23T13:26:08.759Z,101256.09
2022-09-23T13:28:59.453Z,101254.97
2022-09-23T13:31:31.996Z,101251.94
2022-09-23T13:34:05.833Z,101253.84
2022-09-23T13:36:45.302Z,101247.72
2022-09-23T13:39:26.169Z,101240.66
2022-09-23T13:42:00.893Z,101245.97
2022-09-23T13:44:33.202Z,101254.16
2022-09-23T13:47:05.489Z,101240.91
2022-09-23T13:49:38.044Z,101238.31
2022-09-23T13:52:30.874Z,101238.75
2022-09-23T13:55:03.270Z,101225.88
2022-09-23T13:57:35.670Z,101230.69
2022-09-23T14:00:18.980Z,101228.03
2022-09-23T14:02:53.021Z,101220.81
2022-09-23T14:05:27.320Z,101217.38
2022-09-23T14:08:00.773Z,101218.34
2022-09-23T14:10:33.905Z,101213.66
2022-09-23T14:13:06.242Z,101209.19
2022-09-23T14:15:38.721Z,101217.84
2022-09-23T14:18:16.077Z,101207.28
2022-09-23T14:20:50.179Z,101202.50
2022-09-23T14:23:22.668Z,101203.72
2022-09-23T14:25:55.599Z,101203.75
2022-09-23T14:28:28.419Z,101209.50
2022-09-23T14:31:02.404Z,101201.00
2022-09-23T14:33:39.230Z,101207.22
2022-09-23T14:36:35.560Z,101198.88
2022-09-23T14:39:10.221Z,101195.81
2022-09-23T14:41:44.915Z,101195.63
2022-09-23T14:44:21.606Z,101185.53
2022-09-23T14:46:58.226Z,101182.44
2022-09-23T14:49:32.510Z,101182.91
2022-09-23T14:52:06.850Z,101184.00
2022-09-23T14:54:39.141Z,101175.00
2022-09-23T14:57:17.511Z,101182.13
2022-09-23T15:00:00.657Z,101183.38
2022-09-23T15:02:37.557Z,101176.56
2022-09-23T15:05:09.954Z,101171.91
2022-09-23T15:07:44.218Z,101167.72
2022-09-23T15:10:23.555Z,101172.22
2022-09-23T15:13:02.484Z,101169.88
2022-09-23T15:15:35.688Z,101161.19
2022-09-23T15:18:14.336Z,101160.44
2022-09-23T15:21:00.677Z,101157.31
2022-09-23T15:23:35.057Z,101162.44
2022-09-23T15:26:11.420Z,101162.13
2022-09-23T15:28:44.173Z,101157.00
2022-09-23T15:31:18.015Z,101167.84
2022-09-23T15:33:50.866Z,101166.41
2022-09-23T15:36:25.893Z,101165.44
2022-09-23T15:39:04.830Z,101167.47
2022-09-23T15:41:37.198Z,101165.75
2022-09-23T15:44:17.325Z,101166.41
2022-09-23T15:46:51.859Z,101173.38
2022-09-23T15:49:28.813Z,101165.34
2022-09-23T15:52:01.735Z,101157.31
2022-09-23T15:54:34.440Z,101154.84
2022-09-23T15:57:06.813Z,101155.47
2022-09-23T15:59:39.122Z,101157.63
2022-09-23T16:02:18.755Z,101167.09
2022-09-23T16:04:52.354Z,101161.97
2022-09-23T16:07:24.912Z,101162.59
2022-09-23T16:09:58.779Z,101158.88
2022-09-23T16:12:31.366Z,101154.84
2022-09-23T16:15:03.823Z,101150.03
2022-09-23T16:17:37.618Z,101155.91
2022-09-23T16:20:10.500Z,101151.69
2022-09-23T16:22:43.237Z,101156.38
2022-09-23T16:25:15.657Z,101146.28
2022-09-23T16:27:47.994Z,101140.97
2022-09-23T16:30:20.348Z,101139.59
2022-09-23T16:32:52.968Z,101137.69
2022-09-23T16:35:26.860Z,101137.19
2022-09-23T16:37:59.190Z,101134.38
2022-09-23T16:40:31.939Z,101125.97
2022-09-23T16:43:05.563Z,101136.63
2022-09-23T16:45:38.635Z,101129.75
2022-09-23T16:48:11.574Z,101133.28
2022-09-23T16:50:44.113Z,101124.88
2022-09-23T16:53:18.017Z,101137.06
2022-09-23T16:55:50.424Z,101126.34
2022-09-23T16:58:22.737Z,101129.28
2022-09-23T17:01:16.763Z,101131.41
2022-09-23T17:03:49.104Z,101135.25
2022-09-23T17:06:23.855Z,101133.50
2022-09-23T17:08:58.256Z,101128.16
2022-09-23T17:11:33.973Z,101126.88
2022-09-23T17:14:06.603Z,101130.66
2022-09-23T17:16:39.138Z,101131.69
2022-09-23T17:19:11.850Z,101125.94
2022-09-23T17:21:44.704Z,101133.41
2022-09-23T17:24:17.004Z,101124.88
2022-09-23T17:26:52.853Z,101127.44
2022-09-23T17:29:26.813Z,101124.00
2022-09-23T17:31:59.260Z,101111.94
2022-09-23T17:34:33.401Z,101118.38
2022-09-23T17:37:05.841Z,101127.94
2022-09-23T17:39:38.297Z,101118.03
2022-09-23T17:42:10.717Z,101120.81
2022-09-23T17:44:43.103Z,101121.28
2022-09-23T17:47:15.420Z,101114.28
2022-09-23T17:49:49.401Z,101117.19
2022-09-23T17:52:21.715Z,101118.53
2022-09-23T17:54:54.951Z,101115.88
2022-09-23T17:57:27.296Z,101120.75
2022-09-23T17:59:59.656Z,101115.00
2022-09-23T18:02:32.173Z,101114.34
2022-09-23T18:05:05.359Z,101119.22
2022-09-23T18:07:37.704Z,101112.69
2022-09-23T18:10:10.185Z,101119.56
2022-09-23T18:12:42.505Z,101117.81
2022-09-23T18:15:18.165Z,101113.09
2022-09-23T18:17:53.670Z,101123.44
2022-09-23T18:20:26.051Z,101123.03
2022-09-23T18:22:58.832Z,101120.91
2022-09-23T18:25:39.624Z,101122.78
2022-09-23T18:28:12.333Z,101126.22
2022-09-23T18:30:57.721Z,101130.13
2022-09-23T18:33:30.019Z,101128.44
2022-09-23T18:36:02.827Z,101121.69
2022-09-23T18:38:35.106Z,101127.66
2022-09-23T18:41:08.024Z,101124.56
2022-09-23T18:43:44.029Z,101125.47
2022-09-23T18:46:20.880Z,101130.25
2022-09-23T18:49:11.735Z,101133.56
2022-09-23T18:51:56.895Z,101136.53
2022-09-23T18:54:29.367Z,101136.97
2022-09-23T18:57:02.072Z,101136.66
2022-09-23T18:59:35.261Z,101138.75
2022-09-23T19:02:10.945Z,101130.56
2022-09-23T19:04:43.390Z,101130.78
2022-09-23T19:07:16.202Z,101135.88
2022-09-23T19:09:51.923Z,101140.31
2022-09-23T19:12:24.391Z,101138.53
2022-09-23T19:14:57.867Z,101138.41
2022-09-23T19:17:30.590Z,101139.75
2022-09-23T19:20:04.736Z,101142.19
2022-09-23T19:22:38.393Z,101146.38
2022-09-23T19:25:11.215Z,101145.00
2022-09-23T19:27:43.720Z,101140.44
2022-09-23T19:30:19.139Z,101143.00
2022-09-23T19:32:52.560Z,101153.41
2022-09-23T19:35:24.945Z,101143.63
2022-09-23T19:37:57.818Z,101144.06
2022-09-23T19:40:30.304Z,101144.97
2022-09-23T19:43:05.505Z,101147.38
2022-09-23T19:45:38.508Z,101143.47
2022-09-23T19:48:11.229Z,101143.13
2022-09-23T19:50:48.620Z,101138.03
2022-09-23T19:53:23.725Z,101138.03
2022-09-23T19:56:03.239Z,101138.03
2022-09-23T19:58:37.292Z,101141.25
2022-09-23T20:01:10.100Z,101141.66
2022-09-23T20:03:43.616Z,101143.34
2022-09-23T20:06:17.809Z,101139.78
2022-09-23T20:08:51.716Z,101132.66
2022-09-23T20:11:28.609Z,101124.34
2022-09-23T20:14:04.148Z,101122.38
2022-09-23T20:16:37.266Z,101125.91
2022-09-23T20:19:11.923Z,101125.56
2022-09-23T20:21:44.367Z,101122.03
2022-09-23T20:24:16.714Z,101128.00
2022-09-23T20:27:07.624Z,101127.66
2022-09-23T20:29:39.956Z,101125.44
2022-09-23T20:32:12.291Z,101125.09
2022-09-23T20:34:48.581Z,101120.41
2022-09-23T20:37:21.249Z,101114.53
2022-09-23T20:39:53.627Z,101116.63
2022-09-23T20:42:27.465Z,101124.22
2022-09-23T20:45:01.250Z,101116.75
2022-09-23T20:47:35.976Z,101116.88
2022-09-23T20:50:08.477Z,101112.63
2022-09-23T20:52:41.421Z,101113.84
2022-09-23T20:55:13.769Z,101113.16
2022-09-23T20:57:47.955Z,101107.78
2022-09-23T21:00:20.266Z,101115.41
2022-09-23T21:02:52.641Z,101111.19
2022-09-23T21:05:24.991Z,101111.25
2022-09-23T21:08:02.155Z,101106.59
2022-09-23T21:10:35.783Z,101103.91
2022-09-23T21:13:08.104Z,101097.25
2022-09-23T21:15:41.660Z,101097.34
2022-09-23T21:18:17.126Z,101097.09
2022-09-23T21:20:55.312Z,101097.16
2022-09-23T21:23:28.422Z,101094.38
2022-09-23T21:26:04.770Z,101095.97
2022-09-23T21:28:38.620Z,101095.97
2022-09-23T21:31:13.100Z,101096.72
2022-09-23T21:33:45.487Z,101093.19
2022-09-23T21:36:17.773Z,101096.38
2022-09-23T21:38:50.779Z,101096.38
2022-09-23T21:41:23.705Z,101093.63
2022-09-23T21:43:57.227Z,101099.16
2022-09-23T21:46:30.387Z,101100.72
2022-09-23T21:49:03.682Z,101094.84
2022-09-23T21:51:40.986Z,101096.03
2022-09-23T21:54:15.565Z,101090.50
2022-09-23T21:56:47.942Z,101092.84
2022-09-23T21:59:20.217Z,101089.31
2022-09-23T22:01:54.363Z,101092.91
2022-09-23T22:04:26.825Z,101092.22
2022-09-23T22:07:00.578Z,101091.53
2022-09-23T22:09:33.012Z,101089.63
2022-09-23T22:12:05.435Z,101094.81
2022-09-23T22:14:38.866Z,101096.47
2022-09-23T22:17:15.643Z,101096.88
2022-09-23T22:19:48.681Z,101089.44
2022-09-23T22:22:21.032Z,101083.56
2022-09-23T22:24:53.428Z,101081.66
2022-09-23T22:27:27.258Z,101088.06
2022-09-23T22:30:18.338Z,101085.69
2022-09-23T22:32:55.023Z,101086.16
2022-09-23T22:35:27.648Z,101090.13
2022-09-23T22:38:01.008Z,101085.81
2022-09-23T22:40:33.454Z,101081.81
2022-09-23T22:43:05.818Z,101078.28
2022-09-23T22:45:39.537Z,101082.59
2022-09-23T22:48:12.124Z,101080.97
2022-09-23T22:50:45.701Z,101076.97
2022-09-23T22:53:18.066Z,101078.56
2022-09-23T22:55:57.188Z,101078.56
2022-09-23T22:58:32.564Z,101073.00
2022-09-23T23:01:05.426Z,101075.34
2022-09-23T23:03:39.202Z,101072.13
2022-09-23T23:06:11.759Z,101071.44
2022-09-23T23:08:44.037Z,101073.50
2022-09-23T23:11:16.383Z,101073.63
2022-09-23T23:13:48.864Z,101074.81
2022-09-23T23:16:25.159Z,101070.50
2022-09-23T23:18:57.667Z,101068.50
2022-09-23T23:21:30.514Z,101061.38
2022-09-23T23:24:05.930Z,101054.31
2022-09-23T23:26:38.314Z,101051.19
2022-09-23T23:29:11.738Z,101051.63
2022-09-23T23:31:44.606Z,101047.66
2022-09-23T23:34:18.254Z,101042.53
2022-09-23T23:36:54.735Z,101048.50
2022-09-23T23:39:27.527Z,101045.31
2022-09-23T23:42:00.349Z,101043.66
2022-09-23T23:44:34.110Z,101045.22
2022-09-23T23:47:06.554Z,101054.31
2022-09-23T23:49:38.864Z,101051.19
2022-09-23T23:52:12.276Z,101041.00
2022-09-23T23:54:44.595Z,101042.72
2022-09-23T23:57:16.875Z,101049.88
2022-09-23T23:59:49.464Z,101046.78
